If you wish to contribute or participate in the discussions about articles you are invited to join SKYbrary as a registered user

 Actions

Andahuaylas Airport

From SKYbrary Wiki

SPHY
Airport
ICAO: SPHY – IATA: ANS
Summary
Name Andahuaylas Airport
Region South America and Caribbean
Territory Peru PE.gif
Location Huinchos, Apurimac
Serving Andahuaylas
Elevation 3,444.24 m
11,300 ft
11,300 ft3,444.24 m
Type small airport
Coordinates 13° 42' 23.07" S, 73° 21' 1.36" W
Runways
Designator Length Width Surface ROPS
3/21 2500 m8,202.1 ft
30 m98.425 ft
ASP /


METAR
Observation SPHY 101500Z 01008KT CAVOK 15/01 Q1038 RMK PP000
Station Andahuayla
Date/Time 10 December 2018 15:00:00
Wind direction 10°
Wind speed 08 kts
Lowest cloud amount clouds and visibility OK
Temperature 15°C
Dew point 1°C
Humidity 38%
QNH 1038 hPa
Weather condition n/a

A high-elevation airport serving Andahuaylas, Peru.

Climatology

Cold Semi-arid climate (Köppen climate classification BSk).

Maps

Terrain

Loading map...

Airport Layout

Loading map...


Accidents & Serious Incidents at or in vicinity of SPHY

None on SKYbrary